CMA CGM Musca — 2CAC8 — position and weather

sailwx.info

Track history (hours):
 
Tides and Currents Weather Stations Pressure Air Temp Water Temp Dewpoint Dewpoint Depression Visibility Wind Speed Wind Dir Waves Ship Positions

CMA CGM Musca

Last reported at 2017-Oct-13 15:57 UTC. Time now 2017-Oct-18 08:57 UTC.
Position N 35°46' E 014°49'.

Length 347 m; draft 13.7 m.

Type: Ship (hazmat cat A). MMSI: 235070914.

Date/timePositionNaut miles runAvg speedWind from/ knotsBaromVisibWave heightAir tempDewpointWater temp
2017-Oct-13 15:57N 35°46' E 014°49'814.7
2017-Oct-13 15:25N 35°47' E 014°39'512.4
2017-Oct-13 15:00N 35°49' E 014°33'1 0.0
2017-Oct-12 12:48N 35°49' E 014°32'1 2.0
2017-Oct-12 12:27N 35°49' E 014°33'2 4.3
2017-Oct-12 11:54N 35°48' E 014°35'9 7.5
2017-Oct-12 10:42N 35°45' E 014°25'310.8
2017-Oct-12 10:28N 35°46' E 014°22'510.9
2017-Oct-12 10:00N 35°49' E 014°17'611.1
2017-Oct-12 09:29N 35°52' E 014°11'511.0
2017-Oct-12 09:00N 35°55' E 014°05'610.7
2017-Oct-12 08:28N 35°58' E 013°59'511.1
2017-Oct-12 08:00N 36°01' E 013°54'711.4
2017-Oct-12 07:24N 36°04' E 013°47'511.3
2017-Oct-12 06:58N 36°07' E 013°42'42510.6
2017-Oct-10 14:56N 42°31' E 009°47'2611.3
2017-Oct-10 12:35N 42°57' E 009°37'111.3
2017-Oct-10 12:30N 42°58' E 009°37'611.2
2017-Oct-10 12:00N 43°03' E 009°35'611.2
2017-Oct-10 11:30N 43°08' E 009°32'611.1
2017-Oct-10 11:00N 43°13' E 009°28'611.2
2017-Oct-10 10:30N 43°18' E 009°25'611.3
2017-Oct-10 10:00N 43°23' E 009°21'611.4
2017-Oct-10 09:30N 43°28' E 009°18'611.5
2017-Oct-10 09:00N 43°33' E 009°14'611.3
2017-Oct-10 08:30N 43°38' E 009°11'611.3
2017-Oct-10 08:00N 43°44' E 009°08'611.2
2017-Oct-10 07:28N 43°49' E 009°04'612.5
2017-Oct-10 07:00N 43°54' E 009°00'1019.1
2017-Oct-10 06:30N 44°03' E 008°54'919.0
2017-Oct-10 06:00N 44°11' E 008°48'714.0
2017-Oct-10 05:30N 44°17' E 008°44'611.2
2017-Oct-10 05:01N 44°23' E 008°43'3 6.8
2017-Oct-10 04:30N 44°25' E 008°47'0 0.7
2017-Oct-10 03:59N 44°25' E 008°47'0 0.0
2017-Oct-10 03:29N 44°25' E 008°47'0 0.0
2017-Oct-10 02:55N 44°25' E 008°47'0 0.0
2017-Oct-10 02:28N 44°25' E 008°47'0 0.0
2017-Oct-10 01:58N 44°25' E 008°47'0 0.0
2017-Oct-10 01:28N 44°25' E 008°47'0 0.0
2017-Oct-10 00:57N 44°25' E 008°47'0 0.0
2017-Oct-10 00:30N 44°25' E 008°47'0 0.0
2017-Oct-10 00:00N 44°25' E 008°47'0 0.0
2017-Oct-09 23:30N 44°25' E 008°47'0 0.0
2017-Oct-09 23:00N 44°25' E 008°47'0 0.0
2017-Oct-09 22:29N 44°25' E 008°47'0 0.0
2017-Oct-09 21:59N 44°25' E 008°47'0 0.0
2017-Oct-09 21:29N 44°25' E 008°47'0 0.0
2017-Oct-09 20:59N 44°25' E 008°47'0 0.0
2017-Oct-09 20:29N 44°25' E 008°47'0 0.0
2017-Oct-09 19:58N 44°25' E 008°47'0 0.0
2017-Oct-09 19:28N 44°25' E 008°47'0 0.0
2017-Oct-09 18:58N 44°25' E 008°47'0 0.0
2017-Oct-09 18:28N 44°25' E 008°47'0 0.0
2017-Oct-09 18:00N 44°25' E 008°47'0 0.0
2017-Oct-09 17:30N 44°25' E 008°47'0 0.0
2017-Oct-09 17:00N 44°25' E 008°47'0 0.0
2017-Oct-09 16:30N 44°25' E 008°47'0 0.0
2017-Oct-09 16:00N 44°25' E 008°47'0 0.0
2017-Oct-09 15:23N 44°25' E 008°47'0 0.0
2017-Oct-09 14:59N 44°25' E 008°47'0 0.0
2017-Oct-09 14:29N 44°25' E 008°47'0 0.0
2017-Oct-09 13:59N 44°25' E 008°47'0 0.0
2017-Oct-09 13:25N 44°25' E 008°47'0 0.0
2017-Oct-09 12:55N 44°25' E 008°47'0 0.0
2017-Oct-09 12:25N 44°25' E 008°47'0 0.0
2017-Oct-09 11:58N 44°25' E 008°47'0 0.0
2017-Oct-09 11:28N 44°25' E 008°47'0 0.0
2017-Oct-09 11:00N 44°25' E 008°47'0 0.0
2017-Oct-09 10:21N 44°25' E 008°47'0 0.0
2017-Oct-09 10:00N 44°25' E 008°47'0 0.0
2017-Oct-09 09:30N 44°25' E 008°47'0 0.0
2017-Oct-09 09:00N 44°25' E 008°47'0 0.0
2017-Oct-09 08:26N 44°25' E 008°47'0 0.0
2017-Oct-09 07:59N 44°25' E 008°47'0 0.0
2017-Oct-09 07:29N 44°25' E 008°47'0 0.0
2017-Oct-09 06:59N 44°25' E 008°47'0 0.0
2017-Oct-09 06:25N 44°25' E 008°47'0 0.1
2017-Oct-09 06:00N 44°25' E 008°47'1 2.4
2017-Oct-09 05:30N 44°25' E 008°46'2 4.0
2017-Oct-09 05:00N 44°23' E 008°44'0 0.1
2017-Oct-09 04:31N 44°23' E 008°44'1 2.3
2017-Oct-09 04:00N 44°22' E 008°43'4 8.7
2017-Oct-09 03:30N 44°18' E 008°42'0 0.2
2017-Oct-09 03:00N 44°18' E 008°41'0 0.7
2017-Oct-09 02:30N 44°18' E 008°42'0 0.4
2017-Oct-09 02:00N 44°18' E 008°42'1 1.1
2017-Oct-09 01:30N 44°19' E 008°42'613.0
2017-Oct-09 01:01N 44°13' E 008°38'815.9
2017-Oct-09 00:31N 44°06' E 008°32'815.8
2017-Oct-09 00:01N 43°60' E 008°26'815.8
2017-Oct-08 23:31N 43°53' E 008°19'5415.5
2017-Oct-08 20:00N 43°17' E 007°24'916.1
2017-Oct-08 19:27N 43°12' E 007°14'716.1
2017-Oct-08 19:01N 43°08' E 007°05'5415.5
2017-Oct-08 15:33N 42°54' E 005°55'215.9
2017-Oct-08 15:24N 42°54' E 005°52'1416.2
2017-Oct-08 14:31N 43°00' E 005°34'013.0
2017-Oct-08 14:30N 43°01' E 005°34'816.2
2017-Oct-08 14:00N 43°04' E 005°24'816.0
2017-Oct-08 13:29N 43°07' E 005°14'816.1
2017-Oct-08 12:58N 43°10' E 005°03'815.6
2017-Oct-08 12:27N 43°18' E 004°59'612.6
2017-Oct-08 12:00N 43°23' E 004°56'4 7.4
2017-Oct-08 11:26N 43°25' E 004°51'0 0.0
2017-Oct-08 10:47N 43°25' E 004°51'0 0.0
2017-Oct-08 10:29N 43°25' E 004°51'0 0.0
2017-Oct-08 08:28N 43°25' E 004°51'0 0.0
2017-Oct-08 07:30N 43°25' E 004°51'0 0.0
2017-Oct-08 06:30N 43°25' E 004°51'0 0.0
2017-Oct-08 05:57N 43°25' E 004°51'0 0.0
2017-Oct-08 05:20N 43°25' E 004°51'0 0.0
2017-Oct-08 04:56N 43°25' E 004°51'0 0.0
2017-Oct-08 00:54N 43°25' E 004°51'0 0.0
2017-Oct-07 23:33N 43°25' E 004°51'0 0.0
2017-Oct-07 23:30N 43°25' E 004°51'0 0.0
2017-Oct-07 23:00N 43°25' E 004°51'0 0.0
2017-Oct-07 21:56N 43°25' E 004°51'0 0.0
2017-Oct-07 21:29N 43°25' E 004°51'0 0.0
2017-Oct-07 20:41N 43°25' E 004°51'0 0.0
2017-Oct-07 20:19N 43°25' E 004°51'0 0.0
2017-Oct-07 19:58N 43°25' E 004°51'0 0.0
2017-Oct-07 19:22N 43°25' E 004°51'0 0.0
2017-Oct-07 18:58N 43°25' E 004°51'0 0.0
2017-Oct-07 18:09N 43°25' E 004°51'0 0.0
2017-Oct-07 17:30N 43°25' E 004°51'0 0.0
2017-Oct-07 16:57N 43°25' E 004°51'0 0.0
2017-Oct-07 16:27N 43°25' E 004°51'0 0.0
2017-Oct-07 14:50N 43°25' E 004°51'0 0.0
2017-Oct-07 14:29N 43°25' E 004°51'0 0.0
2017-Oct-07 13:59N 43°25' E 004°51'0 0.0
2017-Oct-07 13:07N 43°25' E 004°51'0 0.0
2017-Oct-07 11:46N 43°25' E 004°51'0 0.0
2017-Oct-07 11:18N 43°25' E 004°51'0 0.0
2017-Oct-07 11:00N 43°25' E 004°51'0 0.0
2017-Oct-07 10:24N 43°25' E 004°51'0 0.0
2017-Oct-07 10:00N 43°25' E 004°51'0 0.0
2017-Oct-07 08:35N 43°25' E 004°51'0 0.0
2017-Oct-07 08:29N 43°25' E 004°51'0 0.0
2017-Oct-07 07:59N 43°25' E 004°51'0 0.0
2017-Oct-07 07:29N 43°25' E 004°51'0 0.0
2017-Oct-07 06:53N 43°25' E 004°51'1 1.3
2017-Oct-07 06:10N 43°24' E 004°52'1 8.4
2017-Oct-07 06:00N 43°24' E 004°54'611.0
2017-Oct-07 05:30N 43°20' E 004°59'510.0
2017-Oct-07 05:01N 43°15' E 005°01'1014.0
2017-Oct-07 04:16N 43°06' E 004°55'718.4
2017-Oct-07 03:55N 43°01' E 004°49'1119.1
2017-Oct-07 03:20N 42°51' E 004°43'14818.1
2017-Oct-06 19:10N 41°15' E 002°11'213.3
2017-Oct-06 19:01N 41°17' E 002°11'6 0.1
2017-Oct-04 21:32N 41°12' E 002°14'0 0.3
2017-Oct-04 21:30N 41°12' E 002°14'0 0.1
2017-Oct-04 19:47N 41°12' E 002°14'0 0.3
2017-Oct-04 18:27N 41°12' E 002°13'0 0.4
2017-Oct-04 18:00N 41°12' E 002°13'0 0.3
2017-Oct-04 17:18N 41°12' E 002°13'0 0.4
2017-Oct-04 17:00N 41°12' E 002°13'0 0.3
2017-Oct-04 16:23N 41°12' E 002°13'0 0.4
2017-Oct-04 15:51N 41°12' E 002°13'1 2.7
2017-Oct-04 15:28N 41°12' E 002°12'3 7.1
2017-Oct-04 14:58N 41°11' E 002°07'510.3
2017-Oct-04 14:30N 41°08' E 002°03'510.3
2017-Oct-04 14:00N 41°04' E 001°59'510.2
2017-Oct-04 13:30N 41°00' E 001°54'510.2
2017-Oct-04 13:00N 40°56' E 001°49'510.3
2017-Oct-04 12:30N 40°53' E 001°45'  
Track history (hours):
 
Tides and Currents Weather Stations Pressure Air Temp Water Temp Dewpoint Dewpoint Depression Visibility Wind Speed Wind Dir Waves Ship Positions

CMA CGM Musca

Last reported at 2017-Oct-13 15:57 UTC. Time now 2017-Oct-18 08:57 UTC.
Position N 35°46' E 014°49'.

Length 347 m; draft 13.7 m.

Type: Ship (hazmat cat A). MMSI: 235070914.

Date/timePositionNaut miles runAvg speedWind from/ knotsBaromVisibWave heightAir tempDewpointWater temp
2017-Oct-13 15:57N 35°46' E 014°49'814.7
2017-Oct-13 15:25N 35°47' E 014°39'512.4
2017-Oct-13 15:00N 35°49' E 014°33'1 0.0
2017-Oct-12 12:48N 35°49' E 014°32'1 2.0
2017-Oct-12 12:27N 35°49' E 014°33'2 4.3
2017-Oct-12 11:54N 35°48' E 014°35'9 7.5
2017-Oct-12 10:42N 35°45' E 014°25'310.8
2017-Oct-12 10:28N 35°46' E 014°22'510.9
2017-Oct-12 10:00N 35°49' E 014°17'611.1
2017-Oct-12 09:29N 35°52' E 014°11'511.0
2017-Oct-12 09:00N 35°55' E 014°05'610.7
2017-Oct-12 08:28N 35°58' E 013°59'511.1
2017-Oct-12 08:00N 36°01' E 013°54'711.4
2017-Oct-12 07:24N 36°04' E 013°47'511.3
2017-Oct-12 06:58N 36°07' E 013°42'42510.6
2017-Oct-10 14:56N 42°31' E 009°47'2611.3
2017-Oct-10 12:35N 42°57' E 009°37'111.3
2017-Oct-10 12:30N 42°58' E 009°37'611.2
2017-Oct-10 12:00N 43°03' E 009°35'611.2
2017-Oct-10 11:30N 43°08' E 009°32'611.1
2017-Oct-10 11:00N 43°13' E 009°28'611.2
2017-Oct-10 10:30N 43°18' E 009°25'611.3
2017-Oct-10 10:00N 43°23' E 009°21'611.4
2017-Oct-10 09:30N 43°28' E 009°18'611.5
2017-Oct-10 09:00N 43°33' E 009°14'611.3
2017-Oct-10 08:30N 43°38' E 009°11'611.3
2017-Oct-10 08:00N 43°44' E 009°08'611.2
2017-Oct-10 07:28N 43°49' E 009°04'612.5
2017-Oct-10 07:00N 43°54' E 009°00'1019.1
2017-Oct-10 06:30N 44°03' E 008°54'919.0
2017-Oct-10 06:00N 44°11' E 008°48'714.0
2017-Oct-10 05:30N 44°17' E 008°44'611.2
2017-Oct-10 05:01N 44°23' E 008°43'3 6.8
2017-Oct-10 04:30N 44°25' E 008°47'0 0.7
2017-Oct-10 03:59N 44°25' E 008°47'0 0.0
2017-Oct-10 03:29N 44°25' E 008°47'0 0.0
2017-Oct-10 02:55N 44°25' E 008°47'0 0.0
2017-Oct-10 02:28N 44°25' E 008°47'0 0.0
2017-Oct-10 01:58N 44°25' E 008°47'0 0.0
2017-Oct-10 01:28N 44°25' E 008°47'0 0.0
2017-Oct-10 00:57N 44°25' E 008°47'0 0.0
2017-Oct-10 00:30N 44°25' E 008°47'0 0.0
2017-Oct-10 00:00N 44°25' E 008°47'0 0.0
2017-Oct-09 23:30N 44°25' E 008°47'0 0.0
2017-Oct-09 23:00N 44°25' E 008°47'0 0.0
2017-Oct-09 22:29N 44°25' E 008°47'0 0.0
2017-Oct-09 21:59N 44°25' E 008°47'0 0.0
2017-Oct-09 21:29N 44°25' E 008°47'0 0.0
2017-Oct-09 20:59N 44°25' E 008°47'0 0.0
2017-Oct-09 20:29N 44°25' E 008°47'0 0.0
2017-Oct-09 19:58N 44°25' E 008°47'0 0.0
2017-Oct-09 19:28N 44°25' E 008°47'0 0.0
2017-Oct-09 18:58N 44°25' E 008°47'0 0.0
2017-Oct-09 18:28N 44°25' E 008°47'0 0.0
2017-Oct-09 18:00N 44°25' E 008°47'0 0.0
2017-Oct-09 17:30N 44°25' E 008°47'0 0.0
2017-Oct-09 17:00N 44°25' E 008°47'0 0.0
2017-Oct-09 16:30N 44°25' E 008°47'0 0.0
2017-Oct-09 16:00N 44°25' E 008°47'0 0.0
2017-Oct-09 15:23N 44°25' E 008°47'0 0.0
2017-Oct-09 14:59N 44°25' E 008°47'0 0.0
2017-Oct-09 14:29N 44°25' E 008°47'0 0.0
2017-Oct-09 13:59N 44°25' E 008°47'0 0.0
2017-Oct-09 13:25N 44°25' E 008°47'0 0.0
2017-Oct-09 12:55N 44°25' E 008°47'0 0.0
2017-Oct-09 12:25N 44°25' E 008°47'0 0.0
2017-Oct-09 11:58N 44°25' E 008°47'0 0.0
2017-Oct-09 11:28N 44°25' E 008°47'0 0.0
2017-Oct-09 11:00N 44°25' E 008°47'0 0.0
2017-Oct-09 10:21N 44°25' E 008°47'0 0.0
2017-Oct-09 10:00N 44°25' E 008°47'0 0.0
2017-Oct-09 09:30N 44°25' E 008°47'0 0.0
2017-Oct-09 09:00N 44°25' E 008°47'0 0.0
2017-Oct-09 08:26N 44°25' E 008°47'0 0.0
2017-Oct-09 07:59N 44°25' E 008°47'0 0.0
2017-Oct-09 07:29N 44°25' E 008°47'0 0.0
2017-Oct-09 06:59N 44°25' E 008°47'0 0.0
2017-Oct-09 06:25N 44°25' E 008°47'0 0.1
2017-Oct-09 06:00N 44°25' E 008°47'1 2.4
2017-Oct-09 05:30N 44°25' E 008°46'2 4.0
2017-Oct-09 05:00N 44°23' E 008°44'0 0.1
2017-Oct-09 04:31N 44°23' E 008°44'1 2.3
2017-Oct-09 04:00N 44°22' E 008°43'4 8.7
2017-Oct-09 03:30N 44°18' E 008°42'0 0.2
2017-Oct-09 03:00N 44°18' E 008°41'0 0.7
2017-Oct-09 02:30N 44°18' E 008°42'0 0.4
2017-Oct-09 02:00N 44°18' E 008°42'1 1.1
2017-Oct-09 01:30N 44°19' E 008°42'613.0
2017-Oct-09 01:01N 44°13' E 008°38'815.9
2017-Oct-09 00:31N 44°06' E 008°32'815.8
2017-Oct-09 00:01N 43°60' E 008°26'815.8
2017-Oct-08 23:31N 43°53' E 008°19'5415.5
2017-Oct-08 20:00N 43°17' E 007°24'916.1
2017-Oct-08 19:27N 43°12' E 007°14'716.1
2017-Oct-08 19:01N 43°08' E 007°05'5415.5
2017-Oct-08 15:33N 42°54' E 005°55'215.9
2017-Oct-08 15:24N 42°54' E 005°52'1416.2
2017-Oct-08 14:31N 43°00' E 005°34'013.0
2017-Oct-08 14:30N 43°01' E 005°34'816.2
2017-Oct-08 14:00N 43°04' E 005°24'816.0
2017-Oct-08 13:29N 43°07' E 005°14'816.1
2017-Oct-08 12:58N 43°10' E 005°03'815.6
2017-Oct-08 12:27N 43°18' E 004°59'612.6
2017-Oct-08 12:00N 43°23' E 004°56'4 7.4
2017-Oct-08 11:26N 43°25' E 004°51'0 0.0
2017-Oct-08 10:47N 43°25' E 004°51'0 0.0
2017-Oct-08 10:29N 43°25' E 004°51'0 0.0
2017-Oct-08 08:28N 43°25' E 004°51'0 0.0
2017-Oct-08 07:30N 43°25' E 004°51'0 0.0
2017-Oct-08 06:30N 43°25' E 004°51'0 0.0
2017-Oct-08 05:57N 43°25' E 004°51'0 0.0
2017-Oct-08 05:20N 43°25' E 004°51'0 0.0
2017-Oct-08 04:56N 43°25' E 004°51'0 0.0
2017-Oct-08 00:54N 43°25' E 004°51'0 0.0
2017-Oct-07 23:33N 43°25' E 004°51'0 0.0
2017-Oct-07 23:30N 43°25' E 004°51'0 0.0
2017-Oct-07 23:00N 43°25' E 004°51'0 0.0
2017-Oct-07 21:56N 43°25' E 004°51'0 0.0
2017-Oct-07 21:29N 43°25' E 004°51'0 0.0
2017-Oct-07 20:41N 43°25' E 004°51'0 0.0
2017-Oct-07 20:19N 43°25' E 004°51'0 0.0
2017-Oct-07 19:58N 43°25' E 004°51'0 0.0
2017-Oct-07 19:22N 43°25' E 004°51'0 0.0
2017-Oct-07 18:58N 43°25' E 004°51'0 0.0
2017-Oct-07 18:09N 43°25' E 004°51'0 0.0
2017-Oct-07 17:30N 43°25' E 004°51'0 0.0
2017-Oct-07 16:57N 43°25' E 004°51'0 0.0
2017-Oct-07 16:27N 43°25' E 004°51'0 0.0
2017-Oct-07 14:50N 43°25' E 004°51'0 0.0
2017-Oct-07 14:29N 43°25' E 004°51'0 0.0
2017-Oct-07 13:59N 43°25' E 004°51'0 0.0
2017-Oct-07 13:07N 43°25' E 004°51'0 0.0
2017-Oct-07 11:46N 43°25' E 004°51'0 0.0
2017-Oct-07 11:18N 43°25' E 004°51'0 0.0
2017-Oct-07 11:00N 43°25' E 004°51'0 0.0
2017-Oct-07 10:24N 43°25' E 004°51'0 0.0
2017-Oct-07 10:00N 43°25' E 004°51'0 0.0
2017-Oct-07 08:35N 43°25' E 004°51'0 0.0
2017-Oct-07 08:29N 43°25' E 004°51'0 0.0
2017-Oct-07 07:59N 43°25' E 004°51'0 0.0
2017-Oct-07 07:29N 43°25' E 004°51'0 0.0
2017-Oct-07 06:53N 43°25' E 004°51'1 1.3
2017-Oct-07 06:10N 43°24' E 004°52'1 8.4
2017-Oct-07 06:00N 43°24' E 004°54'611.0
2017-Oct-07 05:30N 43°20' E 004°59'510.0
2017-Oct-07 05:01N 43°15' E 005°01'1014.0
2017-Oct-07 04:16N 43°06' E 004°55'718.4
2017-Oct-07 03:55N 43°01' E 004°49'1119.1
2017-Oct-07 03:20N 42°51' E 004°43'14818.1
2017-Oct-06 19:10N 41°15' E 002°11'213.3
2017-Oct-06 19:01N 41°17' E 002°11'6 0.1
2017-Oct-04 21:32N 41°12' E 002°14'0 0.3
2017-Oct-04 21:30N 41°12' E 002°14'0 0.1
2017-Oct-04 19:47N 41°12' E 002°14'0 0.3
2017-Oct-04 18:27N 41°12' E 002°13'0 0.4
2017-Oct-04 18:00N 41°12' E 002°13'0 0.3
2017-Oct-04 17:18N 41°12' E 002°13'0 0.4
2017-Oct-04 17:00N 41°12' E 002°13'0 0.3
2017-Oct-04 16:23N 41°12' E 002°13'0 0.4
2017-Oct-04 15:51N 41°12' E 002°13'1 2.7
2017-Oct-04 15:28N 41°12' E 002°12'3 7.1
2017-Oct-04 14:58N 41°11' E 002°07'510.3
2017-Oct-04 14:30N 41°08' E 002°03'510.3
2017-Oct-04 14:00N 41°04' E 001°59'510.2
2017-Oct-04 13:30N 41°00' E 001°54'510.2
2017-Oct-04 13:00N 40°56' E 001°49'510.3
2017-Oct-04 12:30N 40°53' E 001°45'  

Dump ship's entire track history